createdAt,value
2019-02-20T00:01:32.151Z,51.40
2019-02-20T00:04:03.965Z,50.20
2019-02-20T00:06:36.059Z,51.20
2019-02-20T00:09:08.336Z,58.60
2019-02-20T00:11:40.554Z,53.00
2019-02-20T00:14:11.991Z,46.20
2019-02-20T00:16:43.552Z,50.60
2019-02-20T00:19:15.394Z,51.40
2019-02-20T00:21:47.251Z,54.00
2019-02-20T00:24:18.985Z,51.40
2019-02-20T00:26:50.948Z,54.20
2019-02-20T00:29:22.617Z,58.60
2019-02-20T00:31:54.652Z,53.20
2019-02-20T00:34:25.905Z,55.60
2019-02-20T00:36:58.026Z,52.20
2019-02-20T00:39:29.539Z,58.80
2019-02-20T00:42:01.237Z,64.80
2019-02-20T00:45:06.866Z,64.60
2019-02-20T00:47:55.613Z,67.00
2019-02-20T00:50:29.273Z,64.40
2019-02-20T00:53:20.115Z,65.80
2019-02-20T00:55:52.001Z,62.60
2019-02-20T00:58:23.659Z,60.60
2019-02-20T01:00:55.416Z,61.40
2019-02-20T01:03:27.064Z,61.80
2019-02-20T01:05:58.949Z,64.00
2019-02-20T01:08:30.556Z,66.80
2019-02-20T01:11:02.445Z,69.20
2019-02-20T01:13:34.042Z,61.20
2019-02-20T01:16:05.556Z,62.00
2019-02-20T01:18:37.227Z,59.80
2019-02-20T01:21:09.274Z,66.40
2019-02-20T01:23:40.901Z,65.60
2019-02-20T01:26:12.993Z,63.60
2019-02-20T01:28:44.631Z,59.80
2019-02-20T01:31:16.175Z,65.80
2019-02-20T01:33:48.133Z,65.20
2019-02-20T01:36:19.509Z,62.80
2019-02-20T01:38:50.909Z,65.80
2019-02-20T01:41:22.685Z,68.20
2019-02-20T01:43:54.672Z,77.60
2019-02-20T01:46:26.230Z,75.20
2019-02-20T01:48:58.039Z,79.60
2019-02-20T01:51:29.780Z,74.60
2019-02-20T01:54:01.490Z,70.40
2019-02-20T01:56:33.334Z,73.20
2019-02-20T01:59:04.984Z,76.40
2019-02-20T02:01:36.690Z,71.00
2019-02-20T02:04:08.456Z,75.60
2019-02-20T02:06:40.230Z,80.20
2019-02-20T02:09:12.167Z,89.40
2019-02-20T02:11:44.438Z,86.60
2019-02-20T02:14:15.853Z,87.40
2019-02-20T02:16:47.702Z,83.60
2019-02-20T02:19:19.493Z,81.40
2019-02-20T02:21:51.234Z,84.40
2019-02-20T02:24:22.955Z,70.60
2019-02-20T02:26:55.695Z,77.60
2019-02-20T02:29:27.891Z,81.20
2019-02-20T02:31:59.739Z,72.40
2019-02-20T02:34:31.441Z,76.20
2019-02-20T02:37:02.873Z,76.60
2019-02-20T02:39:34.510Z,77.00
2019-02-20T02:42:06.591Z,76.40
2019-02-20T02:44:38.437Z,74.40
2019-02-20T02:47:09.971Z,73.80
2019-02-20T02:49:41.695Z,73.20
2019-02-20T02:52:13.353Z,73.80
2019-02-20T02:54:45.275Z,87.00
2019-02-20T02:57:16.868Z,82.40
2019-02-20T02:59:48.760Z,87.40
2019-02-20T03:02:20.835Z,85.60
2019-02-20T03:04:53.188Z,85.20
2019-02-20T03:07:24.563Z,82.40
2019-02-20T03:09:56.092Z,84.40
2019-02-20T03:12:27.777Z,91.40
2019-02-20T03:14:59.383Z,90.40
2019-02-20T03:17:30.890Z,92.00
2019-02-20T03:20:02.383Z,95.00
2019-02-20T03:22:34.823Z,91.00
2019-02-20T03:25:06.494Z,91.40
2019-02-20T03:27:38.318Z,97.20
2019-02-20T03:30:10.397Z,100.00
2019-02-20T03:32:41.786Z,101.60
2019-02-20T03:35:13.288Z,89.50
2019-02-20T03:37:44.600Z,105.50
2019-02-20T03:40:16.550Z,101.25
2019-02-20T03:42:48.294Z,98.50
2019-02-20T03:45:20.559Z,111.75
2019-02-20T03:47:51.986Z,94.25
2019-02-20T03:50:23.787Z,100.00
2019-02-20T03:52:55.713Z,94.60
2019-02-20T03:55:27.423Z,93.40
2019-02-20T03:57:58.939Z,94.60
2019-02-20T04:00:30.360Z,99.25
2019-02-20T04:03:01.749Z,114.25
2019-02-20T04:05:33.310Z,95.60
2019-02-20T04:08:05.217Z,83.20
2019-02-20T04:10:36.622Z,108.00
2019-02-20T04:13:08.331Z,98.00
2019-02-20T04:15:40.027Z,100.50
2019-02-20T04:18:11.638Z,113.00
2019-02-20T04:20:43.258Z,116.00
2019-02-20T04:23:14.969Z,101.25
2019-02-20T04:25:46.472Z,111.50
2019-02-20T04:28:18.032Z,98.50
2019-02-20T04:30:49.737Z,101.25
2019-02-20T04:33:21.365Z,85.20
2019-02-20T04:35:53.057Z,99.00
2019-02-20T04:38:24.436Z,96.20
2019-02-20T04:40:56.143Z,95.00
2019-02-20T04:43:27.908Z,90.75
2019-02-20T04:45:59.626Z,102.00
2019-02-20T04:48:31.162Z,88.00
2019-02-20T04:51:03.121Z,98.75
2019-02-20T04:53:34.760Z,99.50
2019-02-20T04:56:06.427Z,87.40
2019-02-20T04:58:38.391Z,87.40
2019-02-20T05:01:09.981Z,90.80
2019-02-20T05:03:41.503Z,86.00
2019-02-20T05:06:13.051Z,89.00
2019-02-20T05:08:44.923Z,82.60
2019-02-20T05:11:16.621Z,92.60
2019-02-20T05:13:48.335Z,91.20
2019-02-20T05:16:20.514Z,88.00
2019-02-20T05:18:52.212Z,91.20
2019-02-20T05:21:23.872Z,95.40
2019-02-20T05:23:55.286Z,89.80
2019-02-20T05:26:27.048Z,89.80
2019-02-20T05:28:58.715Z,80.60
2019-02-20T05:31:30.256Z,82.60
2019-02-20T05:34:01.886Z,73.80
2019-02-20T05:36:33.500Z,81.20
2019-02-20T05:39:06.053Z,76.80
2019-02-20T05:41:38.498Z,77.60
2019-02-20T05:44:09.727Z,80.00
2019-02-20T05:46:41.228Z,82.00
2019-02-20T05:49:12.773Z,74.60
2019-02-20T05:51:44.651Z,80.40
2019-02-20T05:54:16.824Z,74.40
2019-02-20T05:56:48.768Z,81.20
2019-02-20T05:59:20.922Z,85.60
2019-02-20T06:01:53.057Z,78.00
2019-02-20T06:04:25.319Z,89.80
2019-02-20T06:06:57.476Z,76.00
2019-02-20T06:09:30.149Z,90.00
2019-02-20T06:12:02.099Z,81.40
2019-02-20T06:14:34.217Z,54.80
2019-02-20T06:17:06.269Z,86.00
2019-02-20T06:19:37.824Z,78.80
2019-02-20T06:22:10.426Z,90.80
2019-02-20T06:24:44.194Z,82.80
2019-02-20T06:27:15.396Z,77.00
2019-02-20T06:29:47.282Z,82.80
2019-02-20T06:32:19.036Z,83.60
2019-02-20T06:34:50.506Z,76.80
2019-02-20T06:37:22.501Z,81.00
2019-02-20T06:39:54.284Z,78.60
2019-02-20T06:42:26.038Z,64.40
2019-02-20T06:44:57.715Z,68.60
2019-02-20T06:47:29.780Z,74.00
2019-02-20T06:50:01.754Z,74.40
2019-02-20T06:52:34.705Z,74.20
2019-02-20T06:55:06.887Z,72.80
2019-02-20T06:57:39.167Z,72.00
2019-02-20T07:00:12.651Z,75.80
2019-02-20T07:02:44.441Z,69.00
2019-02-20T07:05:49.995Z,68.00
2019-02-20T07:09:04.824Z,67.40
2019-02-20T07:12:09.439Z,69.60
2019-02-20T07:15:18.783Z,70.20
2019-02-20T07:18:29.035Z,63.20
2019-02-20T07:22:00.092Z,69.20
2019-02-20T07:25:03.068Z,68.40
2019-02-20T07:28:32.963Z,69.00
2019-02-20T07:31:05.572Z,68.80
2019-02-20T07:33:37.483Z,62.80
2019-02-20T07:36:09.317Z,56.80
2019-02-20T07:38:45.358Z,61.00
2019-02-20T07:41:17.054Z,56.20
2019-02-20T07:43:49.660Z,59.40
2019-02-20T07:46:24.665Z,49.40
2019-02-20T07:48:56.388Z,57.00
2019-02-20T07:51:28.238Z,50.00
2019-02-20T07:54:00.096Z,54.60
2019-02-20T07:56:31.859Z,46.80
2019-02-20T07:59:03.351Z,49.80
2019-02-20T08:01:35.006Z,48.00
2019-02-20T08:04:06.822Z,45.20
2019-02-20T08:06:38.596Z,43.00
2019-02-20T08:09:10.128Z,42.60
2019-02-20T08:11:42.770Z,41.40
2019-02-20T08:14:14.268Z,46.00
2019-02-20T08:16:52.175Z,43.20
2019-02-20T08:19:21.809Z,45.40
2019-02-20T08:21:53.158Z,47.40
2019-02-20T08:24:24.608Z,46.00
2019-02-20T08:26:56.265Z,48.20
2019-02-20T08:29:31.683Z,45.60
2019-02-20T08:32:03.536Z,49.00
2019-02-20T08:34:36.298Z,45.60
2019-02-20T08:37:08.129Z,50.40
2019-02-20T08:39:39.643Z,50.00
2019-02-20T08:42:11.235Z,44.60
2019-02-20T08:44:42.852Z,42.20
2019-02-20T08:47:14.823Z,50.60
2019-02-20T08:49:46.496Z,49.60
2019-02-20T08:52:18.164Z,44.40
2019-02-20T08:54:50.259Z,46.00
2019-02-20T08:57:21.740Z,40.20
2019-02-20T08:59:53.463Z,43.20
2019-02-20T09:02:26.713Z,40.20
2019-02-20T09:04:58.906Z,44.20
2019-02-20T09:07:31.210Z,41.20
2019-02-20T09:10:03.396Z,41.80
2019-02-20T09:12:36.490Z,41.60
2019-02-20T09:15:08.824Z,42.20
2019-02-20T09:17:40.713Z,42.60
2019-02-20T09:20:12.513Z,41.00
2019-02-20T09:22:47.050Z,40.80
2019-02-20T09:25:20.114Z,41.60
2019-02-20T09:27:52.290Z,39.20
2019-02-20T09:30:28.433Z,40.00
2019-02-20T09:32:56.774Z,37.80
2019-02-20T09:35:28.396Z,42.00
2019-02-20T09:38:00.534Z,41.00
2019-02-20T09:40:31.975Z,42.00
2019-02-20T09:43:03.977Z,42.80
2019-02-20T09:45:41.999Z,39.00
2019-02-20T09:48:10.175Z,39.40
2019-02-20T09:50:41.979Z,39.20
2019-02-20T09:53:13.990Z,40.80
2019-02-20T09:55:51.640Z,37.20
2019-02-20T09:58:19.264Z,38.40
2019-02-20T10:00:51.129Z,38.20
2019-02-20T10:03:22.997Z,39.20
2019-02-20T10:05:54.941Z,39.20
2019-02-20T10:08:26.641Z,41.40
2019-02-20T10:10:58.049Z,44.00
2019-02-20T10:13:30.680Z,40.20
2019-02-20T10:16:03.479Z,41.00
2019-02-20T10:18:36.103Z,41.20
2019-02-20T10:21:07.825Z,41.20
2019-02-20T10:23:39.764Z,40.20
2019-02-20T10:26:11.328Z,39.60
2019-02-20T10:28:42.922Z,40.20
2019-02-20T10:31:14.850Z,41.20
2019-02-20T10:33:46.863Z,37.20
2019-02-20T10:36:19.425Z,40.20
2019-02-20T10:38:51.457Z,40.00
2019-02-20T10:41:26.113Z,40.20
2019-02-20T10:43:58.014Z,38.40
2019-02-20T10:46:29.864Z,38.00
2019-02-20T10:49:01.810Z,36.60
2019-02-20T10:51:32.342Z,35.20
2019-02-20T10:54:04.207Z,35.20
2019-02-20T10:56:36.332Z,34.40
2019-02-20T10:59:08.259Z,36.80
2019-02-20T11:01:40.243Z,37.00
2019-02-20T11:04:12.169Z,39.20
2019-02-20T11:06:44.202Z,37.00
2019-02-20T11:09:16.065Z,37.60
2019-02-20T11:11:48.124Z,38.20
2019-02-20T11:14:20.164Z,42.80
2019-02-20T11:16:52.272Z,41.00
2019-02-20T11:19:24.093Z,36.40
2019-02-20T11:21:56.006Z,39.00
2019-02-20T11:24:27.761Z,36.20
2019-02-20T11:26:59.830Z,40.20
2019-02-20T11:29:31.688Z,33.80
2019-02-20T11:32:03.473Z,40.40
2019-02-20T11:34:35.383Z,37.00
2019-02-20T11:37:07.299Z,38.20
2019-02-20T11:39:39.053Z,39.00
2019-02-20T11:42:10.967Z,38.40
2019-02-20T11:44:43.746Z,37.80
2019-02-20T11:47:15.706Z,37.60
2019-02-20T11:49:47.376Z,39.80
2019-02-20T11:52:19.260Z,36.60
2019-02-20T11:54:51.006Z,37.40
2019-02-20T11:57:22.698Z,40.40
2019-02-20T11:59:54.108Z,37.40
2019-02-20T12:02:26.338Z,39.20
2019-02-20T12:04:57.870Z,37.80
2019-02-20T12:07:30.117Z,38.60
2019-02-20T12:10:02.006Z,39.20
2019-02-20T12:12:33.965Z,33.60
2019-02-20T12:15:06.242Z,37.20
2019-02-20T12:17:38.156Z,37.40
2019-02-20T12:20:09.693Z,36.80
2019-02-20T12:22:41.653Z,31.60
2019-02-20T12:25:15.182Z,38.00
2019-02-20T12:27:46.994Z,35.60
2019-02-20T12:30:18.569Z,37.40
2019-02-20T12:32:50.300Z,38.40
2019-02-20T12:35:22.008Z,38.20
2019-02-20T12:37:53.771Z,38.60
2019-02-20T12:40:25.459Z,39.60
2019-02-20T12:42:57.251Z,38.80
2019-02-20T12:45:29.070Z,41.00
2019-02-20T12:48:00.388Z,39.80
2019-02-20T12:50:31.933Z,41.00
2019-02-20T12:53:03.585Z,43.80
2019-02-20T12:55:35.579Z,41.80
2019-02-20T12:58:07.299Z,40.60
2019-02-20T13:00:39.127Z,42.60
2019-02-20T13:03:11.230Z,42.40
2019-02-20T13:05:43.221Z,46.40
2019-02-20T13:08:14.939Z,47.00
2019-02-20T13:10:46.662Z,40.40
2019-02-20T13:13:18.596Z,42.20
2019-02-20T13:15:50.160Z,47.60
2019-02-20T13:18:22.095Z,44.80
2019-02-20T13:20:53.824Z,44.20
2019-02-20T13:23:25.444Z,44.20
2019-02-20T13:25:57.091Z,43.80
2019-02-20T13:28:28.887Z,44.00
2019-02-20T13:31:00.925Z,45.60
2019-02-20T13:33:32.741Z,47.00
2019-02-20T13:36:04.961Z,54.40
2019-02-20T13:38:36.388Z,46.40
2019-02-20T13:41:07.815Z,49.00
2019-02-20T13:43:40.870Z,41.20
2019-02-20T13:46:12.560Z,52.20
2019-02-20T13:48:44.252Z,45.60
2019-02-20T13:51:17.654Z,41.20
2019-02-20T13:53:49.144Z,46.80
2019-02-20T13:56:20.868Z,43.80
2019-02-20T13:58:52.650Z,44.40
2019-02-20T14:01:24.653Z,44.80
2019-02-20T14:03:56.182Z,46.00
2019-02-20T14:06:27.864Z,46.40
2019-02-20T14:08:59.567Z,44.20
2019-02-20T14:11:31.220Z,46.40
2019-02-20T14:14:02.820Z,42.80
2019-02-20T14:16:34.594Z,47.20
2019-02-20T14:19:06.518Z,41.60
2019-02-20T14:21:38.052Z,42.00
2019-02-20T14:24:09.918Z,47.20
2019-02-20T14:26:41.512Z,43.80
2019-02-20T14:29:13.353Z,44.60
2019-02-20T14:31:45.225Z,46.60
2019-02-20T14:34:16.977Z,45.80
2019-02-20T14:36:48.923Z,43.40
2019-02-20T14:39:20.420Z,40.60
2019-02-20T14:41:52.477Z,42.20
2019-02-20T14:44:23.804Z,44.20
2019-02-20T14:46:56.600Z,44.60
2019-02-20T14:49:28.206Z,44.40
2019-02-20T14:52:00.729Z,41.20
2019-02-20T14:54:32.606Z,42.60
2019-02-20T14:57:04.952Z,40.20
2019-02-20T14:59:37.388Z,45.20
2019-02-20T15:02:09.570Z,47.20
2019-02-20T15:04:50.323Z,44.20
2019-02-20T15:07:23.982Z,43.00
2019-02-20T15:09:56.200Z,44.20
2019-02-20T15:12:27.932Z,48.40
2019-02-20T15:14:59.393Z,43.60
2019-02-20T15:17:31.668Z,48.20
2019-02-20T15:20:03.528Z,45.60
2019-02-20T15:22:35.587Z,47.20
2019-02-20T15:25:07.377Z,46.60
2019-02-20T15:27:39.528Z,44.80
2019-02-20T15:30:12.741Z,44.60
2019-02-20T15:32:44.606Z,43.80
2019-02-20T15:35:16.657Z,51.40
2019-02-20T15:37:48.498Z,55.00
2019-02-20T15:40:20.094Z,50.80
2019-02-20T15:42:51.719Z,53.00
2019-02-20T15:45:23.453Z,53.40
2019-02-20T15:47:55.166Z,46.80
2019-02-20T15:50:27.394Z,41.60
2019-02-20T15:52:58.877Z,47.20
2019-02-20T15:55:30.718Z,45.20
2019-02-20T15:58:02.330Z,44.20
2019-02-20T16:00:34.119Z,43.00
2019-02-20T16:03:05.968Z,47.80
2019-02-20T16:05:37.392Z,47.00
2019-02-20T16:08:09.270Z,45.00
2019-02-20T16:10:41.040Z,44.20
2019-02-20T16:13:12.552Z,43.20
2019-02-20T16:15:45.274Z,27.00
2019-02-20T16:18:16.963Z,43.40
2019-02-20T16:20:49.177Z,43.20
2019-02-20T16:23:20.914Z,46.20
2019-02-20T16:25:52.685Z,44.20
2019-02-20T16:28:31.840Z,49.40
2019-02-20T16:30:57.838Z,46.20
2019-02-20T16:33:29.372Z,43.20
2019-02-20T16:36:00.961Z,46.60
2019-02-20T16:38:32.493Z,47.60
2019-02-20T16:41:04.779Z,41.60
2019-02-20T16:43:36.530Z,47.40
2019-02-20T16:46:10.133Z,44.00
2019-02-20T16:48:43.153Z,43.00
2019-02-20T16:51:14.879Z,50.40
2019-02-20T16:53:50.059Z,42.20
2019-02-20T16:56:21.858Z,47.20
2019-02-20T16:58:53.621Z,39.40
2019-02-20T17:01:25.576Z,45.60
2019-02-20T17:03:57.323Z,44.60
2019-02-20T17:06:29.012Z,48.00
2019-02-20T17:09:00.625Z,45.00
2019-02-20T17:11:33.830Z,44.60
2019-02-20T17:14:05.591Z,49.00
2019-02-20T17:16:37.449Z,45.20
2019-02-20T17:19:09.451Z,43.20
2019-02-20T17:21:41.379Z,48.20
2019-02-20T17:24:13.148Z,48.20
2019-02-20T17:26:45.087Z,47.20
2019-02-20T17:29:16.930Z,50.60
2019-02-20T17:31:49.200Z,47.40
2019-02-20T17:34:20.998Z,51.00
2019-02-20T17:36:53.212Z,47.60
2019-02-20T17:39:24.682Z,49.80
2019-02-20T17:41:57.728Z,51.40
2019-02-20T17:44:29.236Z,52.40
2019-02-20T17:47:00.730Z,51.60
2019-02-20T17:49:32.477Z,44.40
2019-02-20T17:52:04.230Z,49.00
2019-02-20T17:54:36.060Z,49.00
2019-02-20T17:57:07.771Z,45.60
2019-02-20T17:59:39.422Z,46.60
2019-02-20T18:02:11.173Z,53.60
2019-02-20T18:04:43.859Z,49.80
2019-02-20T18:07:17.141Z,48.60
2019-02-20T18:09:49.805Z,47.20
2019-02-20T18:12:21.397Z,50.80
2019-02-20T18:14:52.966Z,52.40
2019-02-20T18:17:24.920Z,47.00
2019-02-20T18:19:56.505Z,41.20
2019-02-20T18:22:27.971Z,40.00
2019-02-20T18:25:00.998Z,42.60
2019-02-20T18:27:33.202Z,42.00
2019-02-20T18:30:04.827Z,42.40
2019-02-20T18:32:38.414Z,43.20
2019-02-20T18:35:10.610Z,43.80
2019-02-20T18:37:42.543Z,42.00
2019-02-20T18:40:15.392Z,44.20
2019-02-20T18:42:47.513Z,42.00
2019-02-20T18:45:19.321Z,43.20
2019-02-20T18:47:50.881Z,43.40
2019-02-20T18:50:22.708Z,44.20
2019-02-20T18:52:54.702Z,41.00
2019-02-20T18:55:26.676Z,45.20
2019-02-20T18:57:59.843Z,44.60
2019-02-20T19:00:32.176Z,46.40
2019-02-20T19:03:04.233Z,51.60
2019-02-20T19:05:35.946Z,51.40
2019-02-20T19:08:51.185Z,44.60
2019-02-20T19:11:38.855Z,43.60
2019-02-20T19:14:21.836Z,44.00
2019-02-20T19:17:16.896Z,44.00
2019-02-20T19:20:23.807Z,40.00
2019-02-20T19:23:37.219Z,43.80
2019-02-20T19:26:35.889Z,44.20
2019-02-20T19:29:27.988Z,40.40
2019-02-20T19:32:34.361Z,41.60
2019-02-20T19:35:24.017Z,42.40
2019-02-20T19:38:16.410Z,40.00
2019-02-20T19:41:22.704Z,41.40
2019-02-20T19:44:16.983Z,42.20
2019-02-20T19:47:41.157Z,42.20
2019-02-20T19:50:57.554Z,43.80
2019-02-20T19:53:42.043Z,41.00
2019-02-20T19:57:02.398Z,44.00
2019-02-20T19:59:53.182Z,43.60
2019-02-20T20:02:55.949Z,40.60
2019-02-20T20:06:03.227Z,40.40
2019-02-20T20:09:12.076Z,41.80
2019-02-20T20:12:26.931Z,42.40
2019-02-20T20:16:43.638Z,47.60
2019-02-20T20:19:43.431Z,40.60
2019-02-20T20:22:57.114Z,39.00
2019-02-20T20:25:48.823Z,40.00
2019-02-20T20:28:35.402Z,40.20
2019-02-20T20:31:38.227Z,42.20
2019-02-20T20:34:58.490Z,40.00
2019-02-20T20:38:09.080Z,41.80
2019-02-20T20:41:12.830Z,39.00
2019-02-20T20:44:09.208Z,43.60
2019-02-20T20:47:15.353Z,42.60
2019-02-20T20:49:59.181Z,43.00
2019-02-20T20:52:44.900Z,44.00
2019-02-20T20:55:48.819Z,42.00
2019-02-20T20:58:40.044Z,43.00
2019-02-20T21:01:39.105Z,40.20
2019-02-20T21:05:06.543Z,44.40
2019-02-20T21:08:10.012Z,42.80
2019-02-20T21:11:13.310Z,40.80
2019-02-20T21:14:36.928Z,37.80
2019-02-20T21:17:44.587Z,41.40
2019-02-20T21:20:54.112Z,43.20
2019-02-20T21:24:20.619Z,43.20
2019-02-20T21:27:41.960Z,45.00
2019-02-20T21:30:48.669Z,43.20
2019-02-20T21:34:09.569Z,45.60
2019-02-20T21:36:49.940Z,45.40
2019-02-20T21:39:51.936Z,45.20
2019-02-20T21:42:44.804Z,44.20
2019-02-20T21:45:29.016Z,42.20
2019-02-20T21:48:40.641Z,44.20
2019-02-20T21:51:33.507Z,43.20
2019-02-20T21:54:52.027Z,44.20
2019-02-20T21:57:41.486Z,45.40
2019-02-20T22:00:36.103Z,45.20
2019-02-20T22:03:49.130Z,42.20
2019-02-20T22:06:58.367Z,45.00
2019-02-20T22:10:02.816Z,42.80
2019-02-20T22:13:13.694Z,44.20
2019-02-20T22:16:04.329Z,44.20
2019-02-20T22:19:05.429Z,43.00
2019-02-20T22:22:17.635Z,44.00
2019-02-20T22:25:16.952Z,44.20
2019-02-20T22:28:26.897Z,46.00
2019-02-20T22:31:06.360Z,43.60
2019-02-20T22:34:06.612Z,45.20
2019-02-20T22:37:13.212Z,46.00
2019-02-20T22:40:14.141Z,44.20
2019-02-20T22:43:30.470Z,45.80
2019-02-20T22:46:31.114Z,46.20
2019-02-20T22:49:30.814Z,43.20
2019-02-20T22:52:10.828Z,45.40
2019-02-20T22:55:28.684Z,46.00
2019-02-20T22:58:50.229Z,43.40
2019-02-20T23:02:02.837Z,43.80
2019-02-20T23:05:16.303Z,47.80
2019-02-20T23:08:02.711Z,45.00
2019-02-20T23:11:02.935Z,45.80
2019-02-20T23:14:13.952Z,44.20
2019-02-20T23:16:45.926Z,43.80
2019-02-20T23:19:17.730Z,46.00
2019-02-20T23:21:49.325Z,49.40
2019-02-20T23:24:21.117Z,47.40
2019-02-20T23:26:52.837Z,47.00
2019-02-20T23:29:24.435Z,45.80
2019-02-20T23:31:55.916Z,45.60
2019-02-20T23:34:27.849Z,46.00
2019-02-20T23:36:59.871Z,44.80
2019-02-20T23:39:31.596Z,45.60
2019-02-20T23:42:03.206Z,44.20
2019-02-20T23:44:35.336Z,44.20
2019-02-20T23:47:06.819Z,49.00
2019-02-20T23:49:38.414Z,49.80
2019-02-20T23:52:10.147Z,45.60
2019-02-20T23:54:41.559Z,47.00
2019-02-20T23:57:13.514Z,53.40
2019-02-20T23:59:45.112Z,54.80
